sensor_id;sensor_type;location;lat;lon;timestamp;P1;durP1;ratioP1;P2;durP2;ratioP2
50291;SDS011;36190;54.980;73.388;2022-11-14T00:00:24;10.70;;;4.47;;
50291;SDS011;36190;54.980;73.388;2022-11-14T00:02:52;9.85;;;3.95;;
50291;SDS011;36190;54.980;73.388;2022-11-14T00:05:20;10.35;;;4.47;;
50291;SDS011;36190;54.980;73.388;2022-11-14T00:07:47;8.90;;;4.00;;
50291;SDS011;36190;54.980;73.388;2022-11-14T00:10:15;9.57;;;3.97;;
50291;SDS011;36190;54.980;73.388;2022-11-14T00:12:43;11.15;;;4.70;;
50291;SDS011;36190;54.980;73.388;2022-11-14T00:15:11;10.18;;;4.00;;
50291;SDS011;36190;54.980;73.388;2022-11-14T00:17:40;10.02;;;4.05;;
50291;SDS011;36190;54.980;73.388;2022-11-14T00:20:09;9.95;;;4.22;;
50291;SDS011;36190;54.980;73.388;2022-11-14T00:22:37;10.20;;;4.15;;
50291;SDS011;36190;54.980;73.388;2022-11-14T00:25:04;9.65;;;4.45;;
50291;SDS011;36190;54.980;73.388;2022-11-14T00:27:33;10.02;;;4.20;;
50291;SDS011;36190;54.980;73.388;2022-11-14T00:30:00;10.13;;;4.40;;
50291;SDS011;36190;54.980;73.388;2022-11-14T00:32:28;10.55;;;4.10;;
50291;SDS011;36190;54.980;73.388;2022-11-14T00:34:57;10.60;;;4.45;;
50291;SDS011;36190;54.980;73.388;2022-11-14T00:37:25;10.85;;;4.10;;
50291;SDS011;36190;54.980;73.388;2022-11-14T00:39:52;10.32;;;4.32;;
50291;SDS011;36190;54.980;73.388;2022-11-14T00:42:19;12.20;;;4.85;;
50291;SDS011;36190;54.980;73.388;2022-11-14T00:44:47;13.20;;;6.20;;
50291;SDS011;36190;54.980;73.388;2022-11-14T00:47:14;11.85;;;4.90;;
50291;SDS011;36190;54.980;73.388;2022-11-14T00:49:41;15.23;;;5.97;;
50291;SDS011;36190;54.980;73.388;2022-11-14T00:52:10;14.25;;;5.43;;
50291;SDS011;36190;54.980;73.388;2022-11-14T00:54:37;12.20;;;5.28;;
50291;SDS011;36190;54.980;73.388;2022-11-14T00:57:05;14.68;;;5.75;;
50291;SDS011;36190;54.980;73.388;2022-11-14T00:59:32;13.32;;;6.15;;
50291;SDS011;36190;54.980;73.388;2022-11-14T01:01:59;13.13;;;5.88;;
50291;SDS011;36190;54.980;73.388;2022-11-14T01:04:27;14.23;;;5.78;;
50291;SDS011;36190;54.980;73.388;2022-11-14T01:06:54;23.38;;;10.50;;
50291;SDS011;36190;54.980;73.388;2022-11-14T01:09:23;23.83;;;10.15;;
50291;SDS011;36190;54.980;73.388;2022-11-14T01:11:50;16.15;;;6.78;;
50291;SDS011;36190;54.980;73.388;2022-11-14T01:14:17;18.42;;;7.88;;
50291;SDS011;36190;54.980;73.388;2022-11-14T01:16:45;27.00;;;11.02;;
50291;SDS011;36190;54.980;73.388;2022-11-14T01:19:12;16.30;;;6.85;;
50291;SDS011;36190;54.980;73.388;2022-11-14T01:21:39;16.48;;;6.35;;
50291;SDS011;36190;54.980;73.388;2022-11-14T01:24:07;19.27;;;9.82;;
50291;SDS011;36190;54.980;73.388;2022-11-14T01:26:36;12.43;;;6.10;;
50291;SDS011;36190;54.980;73.388;2022-11-14T01:29:03;12.27;;;5.75;;
50291;SDS011;36190;54.980;73.388;2022-11-14T01:31:30;13.25;;;5.97;;
50291;SDS011;36190;54.980;73.388;2022-11-14T01:33:58;13.55;;;6.38;;
50291;SDS011;36190;54.980;73.388;2022-11-14T01:36:25;12.10;;;5.40;;
50291;SDS011;36190;54.980;73.388;2022-11-14T01:38:52;14.80;;;7.43;;
50291;SDS011;36190;54.980;73.388;2022-11-14T01:41:20;13.32;;;5.95;;
50291;SDS011;36190;54.980;73.388;2022-11-14T01:43:49;13.40;;;5.97;;
50291;SDS011;36190;54.980;73.388;2022-11-14T01:46:18;13.10;;;4.97;;
50291;SDS011;36190;54.980;73.388;2022-11-14T01:48:49;10.15;;;4.82;;
50291;SDS011;36190;54.980;73.388;2022-11-14T01:51:20;13.13;;;5.75;;
50291;SDS011;36190;54.980;73.388;2022-11-14T01:53:52;12.03;;;5.53;;
50291;SDS011;36190;54.980;73.388;2022-11-14T01:56:22;13.88;;;5.63;;
50291;SDS011;36190;54.980;73.388;2022-11-14T01:58:56;12.88;;;5.80;;
50291;SDS011;36190;54.980;73.388;2022-11-14T02:01:29;11.38;;;5.18;;
50291;SDS011;36190;54.980;73.388;2022-11-14T02:03:59;12.30;;;5.30;;
50291;SDS011;36190;54.980;73.388;2022-11-14T02:06:28;15.23;;;5.57;;
50291;SDS011;36190;54.980;73.388;2022-11-14T02:08:58;12.95;;;6.03;;
50291;SDS011;36190;54.980;73.388;2022-11-14T02:11:28;13.70;;;5.60;;
50291;SDS011;36190;54.980;73.388;2022-11-14T02:13:59;12.88;;;5.53;;
50291;SDS011;36190;54.980;73.388;2022-11-14T02:16:27;12.77;;;5.10;;
50291;SDS011;36190;54.980;73.388;2022-11-14T02:18:54;10.05;;;4.43;;
50291;SDS011;36190;54.980;73.388;2022-11-14T02:21:23;13.88;;;5.60;;
50291;SDS011;36190;54.980;73.388;2022-11-14T02:23:51;13.57;;;5.28;;
50291;SDS011;36190;54.980;73.388;2022-11-14T02:26:18;12.68;;;4.97;;
50291;SDS011;36190;54.980;73.388;2022-11-14T02:28:47;12.45;;;5.78;;
50291;SDS011;36190;54.980;73.388;2022-11-14T02:31:15;11.93;;;5.15;;
50291;SDS011;36190;54.980;73.388;2022-11-14T02:33:42;13.88;;;5.45;;
50291;SDS011;36190;54.980;73.388;2022-11-14T02:36:10;13.73;;;5.35;;
50291;SDS011;36190;54.980;73.388;2022-11-14T02:38:38;11.65;;;5.15;;
50291;SDS011;36190;54.980;73.388;2022-11-14T02:41:06;13.98;;;5.78;;
50291;SDS011;36190;54.980;73.388;2022-11-14T02:43:33;14.88;;;5.78;;
50291;SDS011;36190;54.980;73.388;2022-11-14T02:46:01;13.55;;;5.18;;
50291;SDS011;36190;54.980;73.388;2022-11-14T02:48:28;14.65;;;5.68;;
50291;SDS011;36190;54.980;73.388;2022-11-14T02:50:55;14.93;;;5.60;;
50291;SDS011;36190;54.980;73.388;2022-11-14T02:53:23;17.55;;;7.18;;
50291;SDS011;36190;54.980;73.388;2022-11-14T02:55:51;16.40;;;6.70;;
50291;SDS011;36190;54.980;73.388;2022-11-14T02:58:19;17.00;;;6.75;;
50291;SDS011;36190;54.980;73.388;2022-11-14T03:00:46;13.40;;;5.53;;
50291;SDS011;36190;54.980;73.388;2022-11-14T03:03:13;14.65;;;5.93;;
50291;SDS011;36190;54.980;73.388;2022-11-14T03:05:41;13.85;;;5.80;;
50291;SDS011;36190;54.980;73.388;2022-11-14T03:08:08;13.00;;;4.97;;
50291;SDS011;36190;54.980;73.388;2022-11-14T03:10:35;14.63;;;5.95;;
50291;SDS011;36190;54.980;73.388;2022-11-14T03:13:04;11.80;;;4.93;;
50291;SDS011;36190;54.980;73.388;2022-11-14T03:15:31;19.70;;;6.35;;
50291;SDS011;36190;54.980;73.388;2022-11-14T03:18:02;13.80;;;5.68;;
50291;SDS011;36190;54.980;73.388;2022-11-14T03:20:30;14.63;;;5.57;;
50291;SDS011;36190;54.980;73.388;2022-11-14T03:22:57;13.63;;;5.53;;
50291;SDS011;36190;54.980;73.388;2022-11-14T03:25:24;13.02;;;5.88;;
50291;SDS011;36190;54.980;73.388;2022-11-14T03:27:52;14.43;;;6.43;;
50291;SDS011;36190;54.980;73.388;2022-11-14T03:30:20;16.67;;;7.25;;
50291;SDS011;36190;54.980;73.388;2022-11-14T03:32:48;13.63;;;6.85;;
50291;SDS011;36190;54.980;73.388;2022-11-14T03:35:15;11.77;;;5.18;;
50291;SDS011;36190;54.980;73.388;2022-11-14T03:37:42;11.85;;;5.18;;
50291;SDS011;36190;54.980;73.388;2022-11-14T03:40:10;13.30;;;5.80;;
50291;SDS011;36190;54.980;73.388;2022-11-14T03:42:38;12.07;;;5.70;;
50291;SDS011;36190;54.980;73.388;2022-11-14T03:45:05;12.52;;;5.68;;
50291;SDS011;36190;54.980;73.388;2022-11-14T03:47:34;13.65;;;6.22;;
50291;SDS011;36190;54.980;73.388;2022-11-14T03:50:02;14.32;;;5.72;;
50291;SDS011;36190;54.980;73.388;2022-11-14T03:52:29;14.63;;;5.50;;
50291;SDS011;36190;54.980;73.388;2022-11-14T03:54:56;14.50;;;5.88;;
50291;SDS011;36190;54.980;73.388;2022-11-14T03:57:24;14.82;;;5.72;;
50291;SDS011;36190;54.980;73.388;2022-11-14T03:59:51;14.15;;;5.55;;
50291;SDS011;36190;54.980;73.388;2022-11-14T04:02:18;13.95;;;5.82;;
50291;SDS011;36190;54.980;73.388;2022-11-14T04:04:47;12.35;;;5.18;;
50291;SDS011;36190;54.980;73.388;2022-11-14T04:07:15;13.70;;;6.47;;
50291;SDS011;36190;54.980;73.388;2022-11-14T04:09:42;15.05;;;5.68;;
50291;SDS011;36190;54.980;73.388;2022-11-14T04:12:11;12.55;;;5.43;;
50291;SDS011;36190;54.980;73.388;2022-11-14T04:14:38;14.65;;;5.78;;
50291;SDS011;36190;54.980;73.388;2022-11-14T04:17:06;11.65;;;5.32;;
50291;SDS011;36190;54.980;73.388;2022-11-14T04:19:33;13.18;;;6.63;;
50291;SDS011;36190;54.980;73.388;2022-11-14T04:22:02;12.95;;;5.97;;
50291;SDS011;36190;54.980;73.388;2022-11-14T04:24:30;13.98;;;6.72;;
50291;SDS011;36190;54.980;73.388;2022-11-14T04:26:59;17.50;;;8.15;;
50291;SDS011;36190;54.980;73.388;2022-11-14T04:29:26;17.98;;;7.38;;
50291;SDS011;36190;54.980;73.388;2022-11-14T04:31:54;17.38;;;7.50;;
50291;SDS011;36190;54.980;73.388;2022-11-14T04:34:21;16.55;;;7.90;;
50291;SDS011;36190;54.980;73.388;2022-11-14T04:36:49;15.70;;;6.90;;
50291;SDS011;36190;54.980;73.388;2022-11-14T04:39:18;16.42;;;7.15;;
50291;SDS011;36190;54.980;73.388;2022-11-14T04:41:45;12.88;;;5.25;;
50291;SDS011;36190;54.980;73.388;2022-11-14T04:44:12;12.10;;;5.45;;
50291;SDS011;36190;54.980;73.388;2022-11-14T04:46:40;14.10;;;5.60;;
50291;SDS011;36190;54.980;73.388;2022-11-14T04:49:07;12.07;;;5.82;;
50291;SDS011;36190;54.980;73.388;2022-11-14T04:51:35;13.35;;;6.75;;
50291;SDS011;36190;54.980;73.388;2022-11-14T04:54:02;13.23;;;5.95;;
50291;SDS011;36190;54.980;73.388;2022-11-14T04:56:31;13.07;;;5.63;;
50291;SDS011;36190;54.980;73.388;2022-11-14T04:58:58;13.23;;;6.10;;
50291;SDS011;36190;54.980;73.388;2022-11-14T05:01:26;13.77;;;6.53;;
50291;SDS011;36190;54.980;73.388;2022-11-14T05:03:53;12.60;;;5.80;;
50291;SDS011;36190;54.980;73.388;2022-11-14T05:06:21;11.20;;;5.60;;
50291;SDS011;36190;54.980;73.388;2022-11-14T05:08:49;17.30;;;6.88;;
50291;SDS011;36190;54.980;73.388;2022-11-14T05:11:17;12.05;;;5.45;;
50291;SDS011;36190;54.980;73.388;2022-11-14T05:13:47;12.40;;;5.53;;
50291;SDS011;36190;54.980;73.388;2022-11-14T05:16:14;11.95;;;5.40;;
50291;SDS011;36190;54.980;73.388;2022-11-14T05:18:42;14.85;;;6.32;;
50291;SDS011;36190;54.980;73.388;2022-11-14T05:21:10;13.70;;;5.47;;
50291;SDS011;36190;54.980;73.388;2022-11-14T05:23:39;12.13;;;5.03;;
50291;SDS011;36190;54.980;73.388;2022-11-14T05:26:07;11.77;;;5.38;;
50291;SDS011;36190;54.980;73.388;2022-11-14T05:28:36;11.68;;;5.60;;
50291;SDS011;36190;54.980;73.388;2022-11-14T05:31:06;11.48;;;5.45;;
50291;SDS011;36190;54.980;73.388;2022-11-14T05:33:35;11.32;;;5.22;;
50291;SDS011;36190;54.980;73.388;2022-11-14T05:36:02;11.95;;;5.63;;
50291;SDS011;36190;54.980;73.388;2022-11-14T05:38:30;11.35;;;5.47;;
50291;SDS011;36190;54.980;73.388;2022-11-14T05:40:58;12.85;;;6.25;;
50291;SDS011;36190;54.980;73.388;2022-11-14T05:43:28;11.85;;;5.15;;
50291;SDS011;36190;54.980;73.388;2022-11-14T05:45:57;12.07;;;4.90;;
50291;SDS011;36190;54.980;73.388;2022-11-14T05:48:27;13.57;;;6.65;;
50291;SDS011;36190;54.980;73.388;2022-11-14T05:50:55;13.43;;;6.03;;
50291;SDS011;36190;54.980;73.388;2022-11-14T05:53:22;14.50;;;5.80;;
50291;SDS011;36190;54.980;73.388;2022-11-14T05:55:50;11.20;;;5.32;;
50291;SDS011;36190;54.980;73.388;2022-11-14T05:58:17;15.55;;;6.32;;
50291;SDS011;36190;54.980;73.388;2022-11-14T06:00:45;12.43;;;5.95;;
50291;SDS011;36190;54.980;73.388;2022-11-14T06:03:12;16.70;;;5.70;;
50291;SDS011;36190;54.980;73.388;2022-11-14T06:05:42;11.68;;;5.75;;
50291;SDS011;36190;54.980;73.388;2022-11-14T06:08:10;12.88;;;5.90;;
50291;SDS011;36190;54.980;73.388;2022-11-14T06:10:37;14.35;;;5.57;;
50291;SDS011;36190;54.980;73.388;2022-11-14T06:13:05;13.77;;;6.30;;
50291;SDS011;36190;54.980;73.388;2022-11-14T06:15:32;13.52;;;6.72;;
50291;SDS011;36190;54.980;73.388;2022-11-14T06:18:00;12.20;;;5.80;;
50291;SDS011;36190;54.980;73.388;2022-11-14T06:20:27;13.00;;;5.82;;
50291;SDS011;36190;54.980;73.388;2022-11-14T06:22:56;12.80;;;6.55;;
50291;SDS011;36190;54.980;73.388;2022-11-14T06:25:23;16.48;;;7.13;;
50291;SDS011;36190;54.980;73.388;2022-11-14T06:27:51;12.23;;;5.65;;
50291;SDS011;36190;54.980;73.388;2022-11-14T06:30:18;14.50;;;6.07;;
50291;SDS011;36190;54.980;73.388;2022-11-14T06:32:45;13.43;;;6.55;;
50291;SDS011;36190;54.980;73.388;2022-11-14T06:35:13;14.48;;;6.50;;
50291;SDS011;36190;54.980;73.388;2022-11-14T06:37:40;14.70;;;6.75;;
50291;SDS011;36190;54.980;73.388;2022-11-14T06:40:10;13.93;;;5.85;;
50291;SDS011;36190;54.980;73.388;2022-11-14T06:42:37;12.40;;;6.38;;
50291;SDS011;36190;54.980;73.388;2022-11-14T06:45:05;13.20;;;5.50;;
50291;SDS011;36190;54.980;73.388;2022-11-14T06:47:33;12.38;;;6.38;;
50291;SDS011;36190;54.980;73.388;2022-11-14T06:50:00;15.75;;;7.00;;
50291;SDS011;36190;54.980;73.388;2022-11-14T06:52:28;13.82;;;5.85;;
50291;SDS011;36190;54.980;73.388;2022-11-14T06:54:56;14.50;;;7.38;;
50291;SDS011;36190;54.980;73.388;2022-11-14T06:57:25;12.93;;;6.43;;
50291;SDS011;36190;54.980;73.388;2022-11-14T06:59:53;16.25;;;7.80;;
50291;SDS011;36190;54.980;73.388;2022-11-14T07:02:20;14.10;;;6.75;;
50291;SDS011;36190;54.980;73.388;2022-11-14T07:04:47;14.07;;;6.63;;
50291;SDS011;36190;54.980;73.388;2022-11-14T07:07:15;13.95;;;6.03;;
50291;SDS011;36190;54.980;73.388;2022-11-14T07:09:42;12.77;;;6.15;;
50291;SDS011;36190;54.980;73.388;2022-11-14T07:12:09;13.27;;;6.50;;
50291;SDS011;36190;54.980;73.388;2022-11-14T07:14:38;13.02;;;6.10;;
50291;SDS011;36190;54.980;73.388;2022-11-14T07:17:06;12.88;;;6.15;;
50291;SDS011;36190;54.980;73.388;2022-11-14T07:19:33;12.70;;;6.10;;
50291;SDS011;36190;54.980;73.388;2022-11-14T07:22:03;13.35;;;6.00;;
50291;SDS011;36190;54.980;73.388;2022-11-14T07:24:30;11.77;;;6.10;;
50291;SDS011;36190;54.980;73.388;2022-11-14T07:26:58;15.30;;;7.13;;
50291;SDS011;36190;54.980;73.388;2022-11-14T07:29:26;13.68;;;6.82;;
50291;SDS011;36190;54.980;73.388;2022-11-14T07:31:55;13.63;;;6.40;;
50291;SDS011;36190;54.980;73.388;2022-11-14T07:34:22;14.65;;;6.90;;
50291;SDS011;36190;54.980;73.388;2022-11-14T07:36:50;13.15;;;6.63;;
50291;SDS011;36190;54.980;73.388;2022-11-14T07:39:19;15.63;;;6.75;;
50291;SDS011;36190;54.980;73.388;2022-11-14T07:41:46;15.13;;;7.18;;
50291;SDS011;36190;54.980;73.388;2022-11-14T07:44:14;13.93;;;6.35;;
50291;SDS011;36190;54.980;73.388;2022-11-14T07:46:41;16.40;;;6.03;;
50291;SDS011;36190;54.980;73.388;2022-11-14T07:49:10;14.20;;;7.32;;
50291;SDS011;36190;54.980;73.388;2022-11-14T07:51:38;16.52;;;8.60;;
50291;SDS011;36190;54.980;73.388;2022-11-14T07:54:05;12.38;;;5.95;;
50291;SDS011;36190;54.980;73.388;2022-11-14T07:56:32;13.38;;;6.93;;
50291;SDS011;36190;54.980;73.388;2022-11-14T07:59:00;13.07;;;6.32;;
50291;SDS011;36190;54.980;73.388;2022-11-14T08:01:27;15.50;;;7.53;;
50291;SDS011;36190;54.980;73.388;2022-11-14T08:03:54;15.27;;;7.43;;
50291;SDS011;36190;54.980;73.388;2022-11-14T08:06:23;17.35;;;7.75;;
50291;SDS011;36190;54.980;73.388;2022-11-14T08:08:52;16.23;;;7.13;;
50291;SDS011;36190;54.980;73.388;2022-11-14T08:11:20;13.43;;;6.65;;
50291;SDS011;36190;54.980;73.388;2022-11-14T08:14:01;14.23;;;7.45;;
50291;SDS011;36190;54.980;73.388;2022-11-14T08:16:29;14.68;;;6.70;;
50291;SDS011;36190;54.980;73.388;2022-11-14T08:18:56;19.30;;;7.65;;
50291;SDS011;36190;54.980;73.388;2022-11-14T08:21:25;13.40;;;6.72;;
50291;SDS011;36190;54.980;73.388;2022-11-14T08:23:52;15.77;;;7.90;;
50291;SDS011;36190;54.980;73.388;2022-11-14T08:26:20;15.50;;;7.88;;
50291;SDS011;36190;54.980;73.388;2022-11-14T08:28:50;14.75;;;7.38;;
50291;SDS011;36190;54.980;73.388;2022-11-14T08:31:18;16.77;;;7.70;;
50291;SDS011;36190;54.980;73.388;2022-11-14T08:33:46;14.93;;;7.55;;
50291;SDS011;36190;54.980;73.388;2022-11-14T08:36:14;16.75;;;7.68;;
50291;SDS011;36190;54.980;73.388;2022-11-14T08:38:43;17.40;;;8.50;;
50291;SDS011;36190;54.980;73.388;2022-11-14T08:41:11;14.93;;;7.47;;
50291;SDS011;36190;54.980;73.388;2022-11-14T08:43:39;17.60;;;7.22;;
50291;SDS011;36190;54.980;73.388;2022-11-14T08:46:06;15.43;;;7.40;;
50291;SDS011;36190;54.980;73.388;2022-11-14T08:48:35;15.23;;;7.75;;
50291;SDS011;36190;54.980;73.388;2022-11-14T08:51:04;15.60;;;7.60;;
50291;SDS011;36190;54.980;73.388;2022-11-14T08:53:32;16.48;;;8.82;;
50291;SDS011;36190;54.980;73.388;2022-11-14T08:56:02;17.42;;;8.05;;
50291;SDS011;36190;54.980;73.388;2022-11-14T08:58:31;15.95;;;7.95;;
50291;SDS011;36190;54.980;73.388;2022-11-14T09:01:00;17.65;;;8.32;;
50291;SDS011;36190;54.980;73.388;2022-11-14T09:03:28;17.10;;;8.27;;
50291;SDS011;36190;54.980;73.388;2022-11-14T09:05:56;27.95;;;13.10;;
50291;SDS011;36190;54.980;73.388;2022-11-14T09:08:25;23.55;;;11.52;;
50291;SDS011;36190;54.980;73.388;2022-11-14T09:10:53;19.05;;;9.07;;
50291;SDS011;36190;54.980;73.388;2022-11-14T09:13:22;16.50;;;7.97;;
50291;SDS011;36190;54.980;73.388;2022-11-14T09:15:51;16.10;;;8.55;;
50291;SDS011;36190;54.980;73.388;2022-11-14T09:18:19;17.63;;;9.07;;
50291;SDS011;36190;54.980;73.388;2022-11-14T09:20:46;17.67;;;8.45;;
50291;SDS011;36190;54.980;73.388;2022-11-14T09:23:13;15.40;;;8.20;;
50291;SDS011;36190;54.980;73.388;2022-11-14T09:25:41;18.60;;;8.70;;
50291;SDS011;36190;54.980;73.388;2022-11-14T09:28:08;20.08;;;8.93;;
50291;SDS011;36190;54.980;73.388;2022-11-14T09:30:37;15.93;;;7.70;;
50291;SDS011;36190;54.980;73.388;2022-11-14T09:33:05;17.83;;;9.02;;
50291;SDS011;36190;54.980;73.388;2022-11-14T09:35:33;16.60;;;8.10;;
50291;SDS011;36190;54.980;73.388;2022-11-14T09:38:02;17.70;;;8.77;;
50291;SDS011;36190;54.980;73.388;2022-11-14T09:40:32;17.05;;;8.88;;
50291;SDS011;36190;54.980;73.388;2022-11-14T09:43:20;15.60;;;8.02;;
50291;SDS011;36190;54.980;73.388;2022-11-14T09:46:00;23.92;;;10.55;;
50291;SDS011;36190;54.980;73.388;2022-11-14T09:48:30;17.67;;;7.70;;
50291;SDS011;36190;54.980;73.388;2022-11-14T09:51:02;18.30;;;7.85;;
50291;SDS011;36190;54.980;73.388;2022-11-14T09:53:34;13.20;;;6.85;;
50291;SDS011;36190;54.980;73.388;2022-11-14T09:56:08;15.73;;;7.47;;
50291;SDS011;36190;54.980;73.388;2022-11-14T09:58:40;17.85;;;9.75;;
50291;SDS011;36190;54.980;73.388;2022-11-14T10:01:10;16.42;;;8.90;;
50291;SDS011;36190;54.980;73.388;2022-11-14T10:03:46;16.77;;;8.73;;
50291;SDS011;36190;54.980;73.388;2022-11-14T10:06:20;19.80;;;9.77;;
50291;SDS011;36190;54.980;73.388;2022-11-14T10:08:58;17.98;;;8.63;;
50291;SDS011;36190;54.980;73.388;2022-11-14T10:11:36;20.38;;;9.07;;
50291;SDS011;36190;54.980;73.388;2022-11-14T10:17:19;18.08;;;8.52;;
50291;SDS011;36190;54.980;73.388;2022-11-14T10:20:08;20.98;;;9.52;;
50291;SDS011;36190;54.980;73.388;2022-11-14T10:22:46;15.80;;;8.10;;
50291;SDS011;36190;54.980;73.388;2022-11-14T10:25:33;15.98;;;8.00;;
50291;SDS011;36190;54.980;73.388;2022-11-14T10:28:17;15.55;;;7.72;;
50291;SDS011;36190;54.980;73.388;2022-11-14T10:30:58;16.50;;;7.90;;
50291;SDS011;36190;54.980;73.388;2022-11-14T10:33:37;17.63;;;8.98;;
50291;SDS011;36190;54.980;73.388;2022-11-14T10:36:16;15.25;;;8.68;;
50291;SDS011;36190;54.980;73.388;2022-11-14T10:38:54;18.75;;;9.52;;
50291;SDS011;36190;54.980;73.388;2022-11-14T10:41:30;16.52;;;8.63;;
50291;SDS011;36190;54.980;73.388;2022-11-14T10:43:58;20.13;;;10.80;;
50291;SDS011;36190;54.980;73.388;2022-11-14T10:46:28;17.92;;;9.15;;
50291;SDS011;36190;54.980;73.388;2022-11-14T10:49:01;17.00;;;9.05;;
50291;SDS011;36190;54.980;73.388;2022-11-14T10:51:39;17.88;;;9.43;;
50291;SDS011;36190;54.980;73.388;2022-11-14T10:54:12;17.60;;;10.05;;
50291;SDS011;36190;54.980;73.388;2022-11-14T10:56:47;15.05;;;7.97;;
50291;SDS011;36190;54.980;73.388;2022-11-14T10:59:15;14.70;;;7.70;;
50291;SDS011;36190;54.980;73.388;2022-11-14T11:01:43;16.23;;;8.13;;
50291;SDS011;36190;54.980;73.388;2022-11-14T11:04:20;17.88;;;8.88;;
50291;SDS011;36190;54.980;73.388;2022-11-14T11:06:52;15.63;;;7.17;;
50291;SDS011;36190;54.980;73.388;2022-11-14T11:09:21;14.48;;;7.25;;
50291;SDS011;36190;54.980;73.388;2022-11-14T11:12:08;15.07;;;7.93;;
50291;SDS011;36190;54.980;73.388;2022-11-14T11:14:41;16.52;;;8.35;;
50291;SDS011;36190;54.980;73.388;2022-11-14T11:17:16;16.10;;;8.45;;
50291;SDS011;36190;54.980;73.388;2022-11-14T11:19:47;25.98;;;14.23;;
50291;SDS011;36190;54.980;73.388;2022-11-14T11:22:28;24.65;;;12.77;;
50291;SDS011;36190;54.980;73.388;2022-11-14T11:25:01;19.40;;;10.88;;
50291;SDS011;36190;54.980;73.388;2022-11-14T11:27:29;25.88;;;12.82;;
50291;SDS011;36190;54.980;73.388;2022-11-14T11:30:04;20.27;;;11.45;;
50291;SDS011;36190;54.980;73.388;2022-11-14T11:32:34;16.88;;;9.60;;
50291;SDS011;36190;54.980;73.388;2022-11-14T11:35:08;17.02;;;9.38;;
50291;SDS011;36190;54.980;73.388;2022-11-14T11:37:39;17.15;;;8.65;;
50291;SDS011;36190;54.980;73.388;2022-11-14T11:40:13;14.93;;;8.43;;
50291;SDS011;36190;54.980;73.388;2022-11-14T11:42:44;16.00;;;7.72;;
50291;SDS011;36190;54.980;73.388;2022-11-14T11:45:17;17.52;;;8.93;;
50291;SDS011;36190;54.980;73.388;2022-11-14T11:47:47;14.45;;;7.53;;
50291;SDS011;36190;54.980;73.388;2022-11-14T11:50:21;14.52;;;7.57;;
50291;SDS011;36190;54.980;73.388;2022-11-14T11:52:53;14.63;;;7.25;;
50291;SDS011;36190;54.980;73.388;2022-11-14T11:55:32;15.02;;;7.43;;
50291;SDS011;36190;54.980;73.388;2022-11-14T11:58:05;14.20;;;7.70;;
50291;SDS011;36190;54.980;73.388;2022-11-14T12:00:38;13.55;;;7.30;;
50291;SDS011;36190;54.980;73.388;2022-11-14T12:03:08;14.95;;;7.43;;
50291;SDS011;36190;54.980;73.388;2022-11-14T12:05:44;16.23;;;8.27;;
50291;SDS011;36190;54.980;73.388;2022-11-14T12:08:17;14.88;;;8.02;;
50291;SDS011;36190;54.980;73.388;2022-11-14T12:10:51;17.13;;;8.98;;
50291;SDS011;36190;54.980;73.388;2022-11-14T12:13:23;20.35;;;10.68;;
50291;SDS011;36190;54.980;73.388;2022-11-14T12:16:17;17.02;;;9.60;;
50291;SDS011;36190;54.980;73.388;2022-11-14T12:18:58;17.13;;;10.32;;
50291;SDS011;36190;54.980;73.388;2022-11-14T12:21:50;20.27;;;9.90;;
50291;SDS011;36190;54.980;73.388;2022-11-14T12:24:38;26.90;;;13.15;;
50291;SDS011;36190;54.980;73.388;2022-11-14T12:30:07;23.92;;;12.70;;
50291;SDS011;36190;54.980;73.388;2022-11-14T12:32:41;20.10;;;9.75;;
50291;SDS011;36190;54.980;73.388;2022-11-14T12:35:16;19.98;;;11.25;;
50291;SDS011;36190;54.980;73.388;2022-11-14T12:37:49;16.27;;;8.70;;
50291;SDS011;36190;54.980;73.388;2022-11-14T12:40:21;18.63;;;9.93;;
50291;SDS011;36190;54.980;73.388;2022-11-14T12:42:54;22.38;;;12.05;;
50291;SDS011;36190;54.980;73.388;2022-11-14T12:48:29;19.60;;;10.43;;
50291;SDS011;36190;54.980;73.388;2022-11-14T12:51:01;22.92;;;11.68;;
50291;SDS011;36190;54.980;73.388;2022-11-14T12:53:41;19.85;;;10.05;;
50291;SDS011;36190;54.980;73.388;2022-11-14T12:56:16;17.60;;;9.07;;
50291;SDS011;36190;54.980;73.388;2022-11-14T12:59:07;18.23;;;9.07;;
50291;SDS011;36190;54.980;73.388;2022-11-14T13:01:57;16.13;;;9.13;;
50291;SDS011;36190;54.980;73.388;2022-11-14T13:04:52;15.38;;;8.20;;
50291;SDS011;36190;54.980;73.388;2022-11-14T13:07:32;15.57;;;8.23;;
50291;SDS011;36190;54.980;73.388;2022-11-14T13:10:13;15.05;;;7.75;;
50291;SDS011;36190;54.980;73.388;2022-11-14T13:12:41;15.52;;;7.85;;
50291;SDS011;36190;54.980;73.388;2022-11-14T13:15:46;15.27;;;8.63;;
50291;SDS011;36190;54.980;73.388;2022-11-14T13:18:32;15.90;;;8.00;;
50291;SDS011;36190;54.980;73.388;2022-11-14T13:21:19;14.50;;;7.20;;
50291;SDS011;36190;54.980;73.388;2022-11-14T13:24:05;15.73;;;7.63;;
50291;SDS011;36190;54.980;73.388;2022-11-14T13:26:39;15.88;;;8.10;;
50291;SDS011;36190;54.980;73.388;2022-11-14T13:35:22;28.25;;;15.88;;
50291;SDS011;36190;54.980;73.388;2022-11-14T13:44:25;20.40;;;10.20;;
50291;SDS011;36190;54.980;73.388;2022-11-14T13:47:26;23.67;;;13.07;;
50291;SDS011;36190;54.980;73.388;2022-11-14T13:50:09;29.02;;;17.55;;
50291;SDS011;36190;54.980;73.388;2022-11-14T13:52:41;57.80;;;36.35;;
50291;SDS011;36190;54.980;73.388;2022-11-14T13:55:17;25.95;;;14.60;;
50291;SDS011;36190;54.980;73.388;2022-11-14T13:57:51;42.25;;;26.88;;
50291;SDS011;36190;54.980;73.388;2022-11-14T14:00:47;32.13;;;18.17;;
50291;SDS011;36190;54.980;73.388;2022-11-14T14:03:26;18.17;;;9.60;;
50291;SDS011;36190;54.980;73.388;2022-11-14T14:06:11;29.50;;;18.25;;
50291;SDS011;36190;54.980;73.388;2022-11-14T14:08:56;17.05;;;9.77;;
50291;SDS011;36190;54.980;73.388;2022-11-14T14:11:40;16.13;;;8.13;;
50291;SDS011;36190;54.980;73.388;2022-11-14T14:14:25;22.42;;;10.98;;
50291;SDS011;36190;54.980;73.388;2022-11-14T14:17:03;15.65;;;7.68;;
50291;SDS011;36190;54.980;73.388;2022-11-14T14:19:44;16.35;;;8.82;;
50291;SDS011;36190;54.980;73.388;2022-11-14T14:22:25;15.35;;;7.97;;
50291;SDS011;36190;54.980;73.388;2022-11-14T14:24:59;16.50;;;8.60;;
50291;SDS011;36190;54.980;73.388;2022-11-14T14:27:35;15.68;;;7.85;;
50291;SDS011;36190;54.980;73.388;2022-11-14T14:30:13;14.20;;;6.82;;
50291;SDS011;36190;54.980;73.388;2022-11-14T14:32:43;14.70;;;6.65;;
50291;SDS011;36190;54.980;73.388;2022-11-14T14:35:28;13.93;;;6.82;;
50291;SDS011;36190;54.980;73.388;2022-11-14T14:37:57;12.63;;;6.28;;
50291;SDS011;36190;54.980;73.388;2022-11-14T14:40:25;14.30;;;6.93;;
50291;SDS011;36190;54.980;73.388;2022-11-14T14:42:54;15.85;;;5.95;;
50291;SDS011;36190;54.980;73.388;2022-11-14T14:45:25;11.77;;;5.47;;
50291;SDS011;36190;54.980;73.388;2022-11-14T14:47:58;11.55;;;6.18;;
50291;SDS011;36190;54.980;73.388;2022-11-14T14:50:30;11.80;;;5.18;;
50291;SDS011;36190;54.980;73.388;2022-11-14T14:53:02;11.15;;;5.18;;
50291;SDS011;36190;54.980;73.388;2022-11-14T14:55:30;12.70;;;6.05;;
50291;SDS011;36190;54.980;73.388;2022-11-14T15:00:51;12.52;;;5.47;;
50291;SDS011;36190;54.980;73.388;2022-11-14T15:03:20;13.82;;;5.80;;
50291;SDS011;36190;54.980;73.388;2022-11-14T15:05:56;10.15;;;5.15;;